createdAt,value
2022-08-05T00:01:27.996Z,94.40
2022-08-05T00:03:56.964Z,94.50
2022-08-05T00:06:32.366Z,94.60
2022-08-05T00:09:00.766Z,94.60
2022-08-05T00:11:34.633Z,94.70
2022-08-05T00:14:12.870Z,94.80
2022-08-05T00:16:53.107Z,94.80
2022-08-05T00:19:24.951Z,94.80
2022-08-05T00:22:00.224Z,94.90
2022-08-05T00:24:30.954Z,94.90
2022-08-05T00:26:59.068Z,94.90
2022-08-05T00:29:26.222Z,95.00
2022-08-05T00:32:10.495Z,95.00
2022-08-05T00:35:04.446Z,94.90
2022-08-05T00:37:35.770Z,94.90
2022-08-05T00:40:26.639Z,94.90
2022-08-05T00:42:57.263Z,95.30
2022-08-05T00:45:28.143Z,95.00
2022-08-05T00:48:10.091Z,95.00
2022-08-05T00:50:37.892Z,95.00
2022-08-05T00:53:09.941Z,95.00
2022-08-05T00:55:51.872Z,95.00
2022-08-05T00:58:19.031Z,95.00
2022-08-05T01:00:47.807Z,95.10
2022-08-05T01:03:22.907Z,95.00
2022-08-05T01:05:51.148Z,95.00
2022-08-05T01:08:40.803Z,95.10
2022-08-05T01:11:33.685Z,95.10
2022-08-05T01:14:10.480Z,95.20
2022-08-05T01:16:56.933Z,95.10
2022-08-05T01:19:46.195Z,95.50
2022-08-05T01:22:34.906Z,95.20
2022-08-05T01:25:21.033Z,95.40
2022-08-05T01:28:22.683Z,95.30
2022-08-05T01:31:03.020Z,95.50
2022-08-05T01:33:38.190Z,95.60
2022-08-05T01:36:16.016Z,95.60
2022-08-05T01:38:46.358Z,95.70
2022-08-05T01:41:18.193Z,95.80
2022-08-05T01:43:50.836Z,95.80
2022-08-05T01:46:42.396Z,95.80
2022-08-05T01:49:23.236Z,95.90
2022-08-05T01:51:58.448Z,95.90
2022-08-05T01:54:31.516Z,95.90
2022-08-05T01:58:13.576Z,95.90
2022-08-05T01:59:50.858Z,95.90
2022-08-05T02:02:20.362Z,95.90
2022-08-05T02:04:59.901Z,95.90
2022-08-05T02:07:30.453Z,96.00
2022-08-05T02:09:57.962Z,96.00
2022-08-05T02:12:51.029Z,96.00
2022-08-05T02:15:24.650Z,96.00
2022-08-05T02:18:35.212Z,96.00
2022-08-05T02:21:15.531Z,96.00
2022-08-05T02:23:48.525Z,96.10
2022-08-05T02:26:22.060Z,96.20
2022-08-05T02:28:50.429Z,96.30
2022-08-05T02:31:26.565Z,96.30
2022-08-05T02:33:59.700Z,96.50
2022-08-05T02:36:31.473Z,96.50
2022-08-05T02:38:59.982Z,96.40
2022-08-05T02:41:42.893Z,96.50
2022-08-05T02:44:19.137Z,96.60
2022-08-05T02:46:53.312Z,96.60
2022-08-05T02:49:36.958Z,96.60
2022-08-05T02:52:07.907Z,96.60
2022-08-05T02:54:37.646Z,96.60
2022-08-05T02:58:10.885Z,96.70
2022-08-05T03:00:01.602Z,96.80
2022-08-05T03:02:33.886Z,96.70
2022-08-05T03:05:02.025Z,96.80
2022-08-05T03:07:59.413Z,96.80
2022-08-05T03:10:24.373Z,96.90
2022-08-05T03:12:52.423Z,96.90
2022-08-05T03:15:21.427Z,96.90
2022-08-05T03:17:54.166Z,96.90
2022-08-05T03:20:23.689Z,96.90
2022-08-05T03:22:52.114Z,97.00
2022-08-05T03:25:32.657Z,97.00
2022-08-05T03:28:03.100Z,97.10
2022-08-05T03:30:34.800Z,97.10
2022-08-05T03:33:07.270Z,97.10
2022-08-05T03:35:41.269Z,97.10
2022-08-05T03:38:11.367Z,97.00
2022-08-05T03:40:48.428Z,97.00
2022-08-05T03:44:09.467Z,97.10
2022-08-05T03:46:04.884Z,97.10
2022-08-05T03:48:35.078Z,97.10
2022-08-05T03:52:36.557Z,97.10
2022-08-05T03:55:53.870Z,97.00
2022-08-05T03:57:18.054Z,97.00
2022-08-05T03:59:55.794Z,97.00
2022-08-05T04:02:38.229Z,97.00
2022-08-05T04:05:13.050Z,97.00
2022-08-05T04:07:57.097Z,97.00
2022-08-05T04:10:28.434Z,97.00
2022-08-05T04:13:00.081Z,97.10
2022-08-05T04:15:33.255Z,97.10
2022-08-05T04:18:09.263Z,97.20
2022-08-05T04:20:36.819Z,97.20
2022-08-05T04:23:03.976Z,97.30
2022-08-05T04:25:49.441Z,97.30
2022-08-05T04:28:30.959Z,97.30
2022-08-05T04:31:01.173Z,97.40
2022-08-05T04:33:36.360Z,97.50
2022-08-05T04:36:45.872Z,97.40
2022-08-05T04:39:06.012Z,97.50
2022-08-05T04:41:37.297Z,97.50
2022-08-05T04:44:08.911Z,97.50
2022-08-05T04:46:37.627Z,97.60
2022-08-05T04:49:14.436Z,97.60
2022-08-05T04:51:43.508Z,97.50
2022-08-05T04:54:10.315Z,97.50
2022-08-05T04:56:39.052Z,97.60
2022-08-05T04:59:22.461Z,97.60
2022-08-05T05:02:35.604Z,97.60
2022-08-05T05:04:47.521Z,97.60
2022-08-05T05:07:15.796Z,97.60
2022-08-05T05:09:44.527Z,97.60
2022-08-05T05:12:11.579Z,97.60
2022-08-05T05:14:49.204Z,97.50
2022-08-05T05:17:24.311Z,97.50
2022-08-05T05:19:56.511Z,97.50
2022-08-05T05:22:26.468Z,97.50
2022-08-05T05:24:59.971Z,97.50
2022-08-05T05:27:44.376Z,97.40
2022-08-05T05:30:15.760Z,97.40
2022-08-05T05:33:01.036Z,97.30
2022-08-05T05:35:37.772Z,97.20
2022-08-05T05:38:09.114Z,97.10
2022-08-05T05:40:48.265Z,97.00
2022-08-05T05:43:54.000Z,96.80
2022-08-05T05:46:17.855Z,96.80
2022-08-05T05:48:47.949Z,96.80
2022-08-05T05:51:20.397Z,96.60
2022-08-05T05:53:57.446Z,96.30
2022-08-05T05:56:32.528Z,96.20
2022-08-05T05:59:06.548Z,96.10
2022-08-05T06:01:37.783Z,95.90
2022-08-05T06:04:11.809Z,95.70
2022-08-05T06:06:41.983Z,95.50
2022-08-05T06:09:17.429Z,95.40
2022-08-05T06:12:01.852Z,95.30
2022-08-05T06:14:33.289Z,95.10
2022-08-05T06:17:24.209Z,95.00
2022-08-05T06:19:56.743Z,94.90
2022-08-05T06:22:34.276Z,94.80
2022-08-05T06:25:59.122Z,94.60
2022-08-05T06:28:12.714Z,94.50
2022-08-05T06:30:38.864Z,94.40
2022-08-05T06:33:09.927Z,94.20
2022-08-05T06:36:04.116Z,94.10
2022-08-05T06:38:36.456Z,93.80
2022-08-05T06:41:04.732Z,93.60
2022-08-05T06:43:57.664Z,93.50
2022-08-05T06:46:18.400Z,93.30
2022-08-05T06:48:55.308Z,93.30
2022-08-05T06:51:30.225Z,93.20
2022-08-05T06:54:02.511Z,93.10
2022-08-05T06:56:30.283Z,92.90
2022-08-05T06:59:02.289Z,92.90
2022-08-05T07:01:32.487Z,92.80
2022-08-05T07:04:02.320Z,92.70
2022-08-05T07:06:29.910Z,92.30
2022-08-05T07:08:59.106Z,92.10
2022-08-05T07:11:28.610Z,91.70
2022-08-05T07:14:20.236Z,91.50
2022-08-05T07:17:57.135Z,91.20
2022-08-05T07:22:29.151Z,89.80
2022-08-05T07:25:21.780Z,87.90
2022-08-05T07:27:57.637Z,87.00
2022-08-05T07:30:34.685Z,86.70
2022-08-05T07:33:09.381Z,86.60
2022-08-05T07:36:04.400Z,86.90
2022-08-05T07:38:33.599Z,86.80
2022-08-05T07:42:07.355Z,86.80
2022-08-05T07:43:56.372Z,86.90
2022-08-05T07:46:28.174Z,87.10
2022-08-05T07:49:01.747Z,86.60
2022-08-05T07:51:40.178Z,86.70
2022-08-05T07:54:09.719Z,86.80
2022-08-05T07:57:00.264Z,86.90
2022-08-05T07:59:39.047Z,86.90
2022-08-05T08:02:16.169Z,87.50
2022-08-05T08:04:48.780Z,87.80
2022-08-05T08:07:18.422Z,88.00
2022-08-05T08:09:53.036Z,88.20
2022-08-05T08:12:37.319Z,88.60
2022-08-05T08:15:13.888Z,88.90
2022-08-05T08:17:46.046Z,89.50
2022-08-05T08:20:42.649Z,89.60
2022-08-05T08:23:04.527Z,89.50
2022-08-05T08:25:58.869Z,89.50
2022-08-05T08:28:36.118Z,89.00
2022-08-05T08:31:04.782Z,88.40
2022-08-05T08:33:38.063Z,87.30
2022-08-05T08:36:39.213Z,86.40
2022-08-05T08:38:57.378Z,86.10
2022-08-05T08:41:50.829Z,86.10
2022-08-05T08:45:20.089Z,86.10
2022-08-05T08:47:46.992Z,86.60
2022-08-05T08:50:05.774Z,86.90
2022-08-05T08:52:53.138Z,87.20
2022-08-05T08:56:02.076Z,86.90
2022-08-05T08:58:09.587Z,86.60
2022-08-05T09:00:36.756Z,86.60
2022-08-05T09:03:06.836Z,87.10
2022-08-05T09:05:38.782Z,87.40
2022-08-05T09:08:26.618Z,87.20
2022-08-05T09:10:54.334Z,87.00
2022-08-05T09:13:23.592Z,86.80
2022-08-05T09:15:51.275Z,86.80
2022-08-05T09:18:18.543Z,86.30
2022-08-05T09:20:47.085Z,85.50
2022-08-05T09:23:19.450Z,85.20
2022-08-05T09:26:06.472Z,85.10
2022-08-05T09:28:35.198Z,85.00
2022-08-05T09:31:22.408Z,84.50
2022-08-05T09:34:06.678Z,84.70
2022-08-05T09:36:55.589Z,84.60
2022-08-05T09:39:41.518Z,84.80
2022-08-05T09:42:17.248Z,84.30
2022-08-05T09:44:50.631Z,83.80
2022-08-05T09:47:21.857Z,83.20
2022-08-05T09:50:00.487Z,82.70
2022-08-05T09:52:29.259Z,82.70
2022-08-05T09:55:56.714Z,82.90
2022-08-05T09:57:54.845Z,83.50
2022-08-05T10:00:26.403Z,83.40
2022-08-05T10:02:54.944Z,83.40
2022-08-05T10:05:32.757Z,82.30
2022-08-05T10:08:35.353Z,79.00
2022-08-05T10:10:54.191Z,78.80
2022-08-05T10:13:44.152Z,79.10
2022-08-05T10:16:34.291Z,77.70
2022-08-05T10:19:10.009Z,76.80
2022-08-05T10:21:40.507Z,75.70
2022-08-05T10:24:13.263Z,75.00
2022-08-05T10:26:49.057Z,74.50
2022-08-05T10:30:06.937Z,74.30
2022-08-05T10:32:52.052Z,75.20
2022-08-05T10:35:00.974Z,75.80
2022-08-05T10:37:40.338Z,75.30
2022-08-05T10:40:40.503Z,74.50
2022-08-05T10:43:31.101Z,74.20
2022-08-05T10:46:07.099Z,74.90
2022-08-05T10:48:52.713Z,75.40
2022-08-05T10:51:29.291Z,75.40
2022-08-05T10:53:58.343Z,75.00
2022-08-05T10:56:28.182Z,74.80
2022-08-05T10:58:55.868Z,74.50
2022-08-05T11:02:03.758Z,74.70
2022-08-05T11:04:32.112Z,75.00
2022-08-05T11:07:06.506Z,73.90
2022-08-05T11:09:46.730Z,72.90
2022-08-05T11:12:38.227Z,71.90
2022-08-05T11:16:01.007Z,71.60
2022-08-05T11:18:32.651Z,72.10
2022-08-05T11:21:06.367Z,72.90
2022-08-05T11:24:03.010Z,74.00
2022-08-05T11:26:38.019Z,74.90
2022-08-05T11:29:13.921Z,74.60
2022-08-05T11:31:58.293Z,74.40
2022-08-05T11:34:39.882Z,73.60
2022-08-05T11:38:28.186Z,74.50
2022-08-05T11:41:12.843Z,75.10
2022-08-05T11:44:04.513Z,73.50
2022-08-05T11:46:37.475Z,71.80
2022-08-05T11:49:10.173Z,71.30
2022-08-05T11:51:44.743Z,71.40
2022-08-05T11:54:33.308Z,69.60
2022-08-05T11:57:08.061Z,67.20
2022-08-05T11:59:51.741Z,66.60
2022-08-05T12:02:31.409Z,63.90
2022-08-05T12:05:06.884Z,62.80
2022-08-05T12:08:07.388Z,63.70
2022-08-05T12:10:43.301Z,61.20
2022-08-05T12:13:28.091Z,60.80
2022-08-05T12:16:14.786Z,60.90
2022-08-05T12:18:52.317Z,60.90
2022-08-05T12:21:29.744Z,60.90
2022-08-05T12:24:22.379Z,59.70
2022-08-05T12:26:53.863Z,60.20
2022-08-05T12:29:23.515Z,61.50
2022-08-05T12:31:58.124Z,60.60
2022-08-05T12:34:35.690Z,61.40
2022-08-05T12:37:10.914Z,61.50
2022-08-05T12:39:48.511Z,62.20
2022-08-05T12:42:19.952Z,63.90
2022-08-05T12:44:47.618Z,65.80
2022-08-05T12:47:26.779Z,65.70
2022-08-05T12:50:03.065Z,65.60
2022-08-05T12:52:39.267Z,65.20
2022-08-05T12:55:22.139Z,64.20
2022-08-05T12:58:51.531Z,63.70
2022-08-05T13:02:05.834Z,65.10
2022-08-05T13:03:32.428Z,62.60
2022-08-05T13:06:03.087Z,63.00
2022-08-05T13:08:33.021Z,60.60
2022-08-05T13:11:04.099Z,61.40
2022-08-05T13:14:06.089Z,63.10
2022-08-05T13:16:19.612Z,63.50
2022-08-05T13:18:55.037Z,63.50
2022-08-05T13:21:27.782Z,62.70
2022-08-05T13:23:55.841Z,63.40
2022-08-05T13:26:30.164Z,65.60
2022-08-05T13:28:57.648Z,67.40
2022-08-05T13:32:02.910Z,69.40
2022-08-05T13:34:25.622Z,70.40
2022-08-05T13:36:56.196Z,70.50
2022-08-05T13:39:24.638Z,70.10
2022-08-05T13:42:14.215Z,71.10
2022-08-05T13:44:46.013Z,71.20
2022-08-05T13:47:35.982Z,71.50
2022-08-05T13:50:04.768Z,70.60
2022-08-05T13:52:35.259Z,70.80
2022-08-05T13:55:07.238Z,70.30
2022-08-05T13:57:50.921Z,68.60
2022-08-05T14:00:27.612Z,69.40
2022-08-05T14:02:56.528Z,69.60
2022-08-05T14:05:29.466Z,70.10
2022-08-05T14:08:20.300Z,70.40
2022-08-05T14:11:03.178Z,71.30
2022-08-05T14:13:41.641Z,71.50
2022-08-05T14:16:11.514Z,71.00
2022-08-05T14:18:38.560Z,70.90
2022-08-05T14:22:08.180Z,71.90
2022-08-05T14:23:52.349Z,72.60
2022-08-05T14:26:38.555Z,72.40
2022-08-05T14:29:16.498Z,72.70
2022-08-05T14:32:02.536Z,72.00
2022-08-05T14:34:35.387Z,71.00
2022-08-05T14:37:03.407Z,70.60
2022-08-05T14:39:32.061Z,70.30
2022-08-05T14:42:20.918Z,70.90
2022-08-05T14:44:49.242Z,72.80
2022-08-05T14:47:16.089Z,71.10
2022-08-05T14:49:59.704Z,71.50
2022-08-05T14:52:52.045Z,70.90
2022-08-05T14:55:16.544Z,69.80
2022-08-05T14:57:54.742Z,70.00
2022-08-05T15:00:28.190Z,69.50
2022-08-05T15:02:56.546Z,68.20
2022-08-05T15:05:29.541Z,67.00
2022-08-05T15:08:06.697Z,66.40
2022-08-05T15:10:41.395Z,66.00
2022-08-05T15:13:10.096Z,65.70
2022-08-05T15:15:53.862Z,66.20
2022-08-05T15:18:25.021Z,66.40
2022-08-05T15:20:54.085Z,65.90
2022-08-05T15:23:20.838Z,66.40
2022-08-05T15:25:52.073Z,67.20
2022-08-05T15:28:27.014Z,67.10
2022-08-05T15:30:54.933Z,66.80
2022-08-05T15:34:05.941Z,67.30
2022-08-05T15:36:17.301Z,68.90
2022-08-05T15:40:41.020Z,69.60
2022-08-05T15:41:55.501Z,70.00
2022-08-05T15:44:24.912Z,70.40
2022-08-05T15:46:55.791Z,68.30
2022-08-05T15:49:40.839Z,65.50
2022-08-05T15:52:29.034Z,64.60
2022-08-05T15:54:56.539Z,65.70
2022-08-05T15:57:23.667Z,66.00
2022-08-05T15:59:56.465Z,65.60
2022-08-05T16:02:27.034Z,66.20
2022-08-05T16:04:55.888Z,67.20
2022-08-05T16:07:23.029Z,66.80
2022-08-05T16:09:49.977Z,66.60
2022-08-05T16:12:19.791Z,66.40
2022-08-05T16:14:46.806Z,66.60
2022-08-05T16:17:13.537Z,65.60
2022-08-05T16:20:05.013Z,64.20
2022-08-05T16:22:33.850Z,63.50
2022-08-05T16:25:09.845Z,63.70
2022-08-05T16:27:59.911Z,64.40
2022-08-05T16:30:26.233Z,64.80
2022-08-05T16:32:55.647Z,65.90
2022-08-05T16:35:27.877Z,65.40
2022-08-05T16:38:02.896Z,64.50
2022-08-05T16:40:47.801Z,64.60
2022-08-05T16:43:25.044Z,64.50
2022-08-05T16:46:03.933Z,64.40
2022-08-05T16:48:35.732Z,64.10
2022-08-05T16:51:09.156Z,65.00
2022-08-05T16:54:04.215Z,66.30
2022-08-05T16:56:27.519Z,65.90
2022-08-05T16:58:54.352Z,65.90
2022-08-05T17:01:21.234Z,65.30
2022-08-05T17:03:51.810Z,65.50
2022-08-05T17:06:19.298Z,65.30
2022-08-05T17:08:52.840Z,66.00
2022-08-05T17:11:25.694Z,66.90
2022-08-05T17:14:05.156Z,65.30
2022-08-05T17:16:38.407Z,65.40
2022-08-05T17:19:07.861Z,65.70
2022-08-05T17:21:37.407Z,65.10
2022-08-05T17:24:28.145Z,64.00
2022-08-05T17:26:55.283Z,64.90
2022-08-05T17:29:33.973Z,64.20
2022-08-05T17:32:11.427Z,64.20
2022-08-05T17:34:43.779Z,64.50
2022-08-05T17:37:32.092Z,64.90
2022-08-05T17:39:59.809Z,65.20
2022-08-05T17:42:31.858Z,65.80
2022-08-05T17:45:09.719Z,65.70
2022-08-05T17:47:47.010Z,65.90
2022-08-05T17:50:27.651Z,66.30
2022-08-05T17:52:58.833Z,65.30
2022-08-05T17:55:27.261Z,65.60
2022-08-05T17:58:02.014Z,66.50
2022-08-05T18:00:29.738Z,66.90
2022-08-05T18:02:56.932Z,67.10
2022-08-05T18:05:27.900Z,66.40
2022-08-05T18:07:58.229Z,65.90
2022-08-05T18:10:27.588Z,65.60
2022-08-05T18:12:58.992Z,64.50
2022-08-05T18:15:28.504Z,63.80
2022-08-05T18:18:05.561Z,63.50
2022-08-05T18:20:40.339Z,63.60
2022-08-05T18:23:12.206Z,63.50
2022-08-05T18:25:44.870Z,63.80
2022-08-05T18:28:16.127Z,63.50
2022-08-05T18:30:50.962Z,63.40
2022-08-05T18:33:22.506Z,63.30
2022-08-05T18:36:03.215Z,62.20
2022-08-05T18:38:35.838Z,61.20
2022-08-05T18:41:53.496Z,60.40
2022-08-05T18:43:57.084Z,60.40
2022-08-05T18:46:32.546Z,60.60
2022-08-05T18:49:20.383Z,59.70
2022-08-05T18:52:10.754Z,59.50
2022-08-05T18:54:41.451Z,59.40
2022-08-05T18:57:15.502Z,60.10
2022-08-05T19:00:02.204Z,61.10
2022-08-05T19:02:32.891Z,62.50
2022-08-05T19:06:05.574Z,64.50
2022-08-05T19:07:50.308Z,65.90
2022-08-05T19:10:27.990Z,67.00
2022-08-05T19:12:55.403Z,67.40
2022-08-05T19:15:57.582Z,68.50
2022-08-05T19:18:22.420Z,69.20
2022-08-05T19:20:54.086Z,69.20
2022-08-05T19:24:07.341Z,69.80
2022-08-05T19:26:13.859Z,70.00
2022-08-05T19:28:43.141Z,70.20
2022-08-05T19:31:13.178Z,70.20
2022-08-05T19:33:48.694Z,70.50
2022-08-05T19:36:27.200Z,71.20
2022-08-05T19:39:01.117Z,71.90
2022-08-05T19:42:05.427Z,72.50
2022-08-05T19:44:22.458Z,73.20
2022-08-05T19:46:52.029Z,73.20
2022-08-05T19:49:18.891Z,73.80
2022-08-05T19:52:05.013Z,73.90
2022-08-05T19:54:34.796Z,74.00
2022-08-05T19:57:09.326Z,74.00
2022-08-05T20:00:00.547Z,74.40
2022-08-05T20:02:32.255Z,74.80
2022-08-05T20:04:59.854Z,75.40
2022-08-05T20:07:45.776Z,76.10
2022-08-05T20:10:16.640Z,76.20
2022-08-05T20:12:49.183Z,76.10
2022-08-05T20:15:23.201Z,76.40
2022-08-05T20:18:10.873Z,76.80
2022-08-05T20:20:56.009Z,76.90
2022-08-05T20:23:40.432Z,77.40
2022-08-05T20:26:16.412Z,77.80
2022-08-05T20:28:51.444Z,78.20
2022-08-05T20:31:23.095Z,78.70
2022-08-05T20:34:06.621Z,79.20
2022-08-05T20:36:35.285Z,79.10
2022-08-05T20:39:12.842Z,79.00
2022-08-05T20:41:44.175Z,79.50
2022-08-05T20:44:18.413Z,80.00
2022-08-05T20:46:47.041Z,80.30
2022-08-05T20:49:14.329Z,80.60
2022-08-05T20:51:45.246Z,81.10
2022-08-05T20:54:20.501Z,81.50
2022-08-05T20:56:47.651Z,82.00
2022-08-05T20:59:19.091Z,82.90
2022-08-05T21:01:46.949Z,82.80
2022-08-05T21:04:14.121Z,82.70
2022-08-05T21:06:45.594Z,82.90
2022-08-05T21:09:14.222Z,83.00
2022-08-05T21:12:06.812Z,83.10
2022-08-05T21:14:34.638Z,84.30
2022-08-05T21:17:03.153Z,84.80
2022-08-05T21:19:46.500Z,84.80
2022-08-05T21:22:17.690Z,85.10
2022-08-05T21:24:51.437Z,85.60
2022-08-05T21:27:18.763Z,85.90
2022-08-05T21:29:48.210Z,86.30
2022-08-05T21:32:17.135Z,87.90
2022-08-05T21:35:08.974Z,88.10
2022-08-05T21:37:34.025Z,88.00
2022-08-05T21:40:07.182Z,88.20
2022-08-05T21:42:44.938Z,88.60
2022-08-05T21:45:24.422Z,88.50
2022-08-05T21:47:56.054Z,88.20
2022-08-05T21:50:25.191Z,88.00
2022-08-05T21:52:52.247Z,88.00
2022-08-05T21:55:43.091Z,88.90
2022-08-05T21:58:10.485Z,89.90
2022-08-05T22:00:38.761Z,90.40
2022-08-05T22:03:07.348Z,90.60
2022-08-05T22:05:48.781Z,90.90
2022-08-05T22:08:22.559Z,91.00
2022-08-05T22:10:53.331Z,91.00
2022-08-05T22:14:05.539Z,91.00
2022-08-05T22:16:32.214Z,91.00
2022-08-05T22:18:54.046Z,91.00
2022-08-05T22:21:25.432Z,91.10
2022-08-05T22:24:12.967Z,91.00
2022-08-05T22:27:17.435Z,91.10
2022-08-05T22:29:44.401Z,91.40
2022-08-05T22:32:12.752Z,91.50
2022-08-05T22:34:44.316Z,91.60
2022-08-05T22:37:12.622Z,91.50
2022-08-05T22:39:39.507Z,91.70
2022-08-05T22:42:12.455Z,92.00
2022-08-05T22:44:56.563Z,92.10
2022-08-05T22:47:29.285Z,92.30
2022-08-05T22:50:19.513Z,92.40
2022-08-05T22:52:48.879Z,92.30
2022-08-05T22:55:18.980Z,92.20
2022-08-05T22:57:49.079Z,92.20
2022-08-05T23:00:17.798Z,92.20
2022-08-05T23:02:48.071Z,92.20
2022-08-05T23:05:16.369Z,92.50
2022-08-05T23:07:44.935Z,92.80
2022-08-05T23:10:12.895Z,92.90
2022-08-05T23:12:39.805Z,92.80
2022-08-05T23:15:10.632Z,92.90
2022-08-05T23:18:01.636Z,93.10
2022-08-05T23:20:25.904Z,93.20
2022-08-05T23:22:56.221Z,93.50
2022-08-05T23:25:51.258Z,93.50
2022-08-05T23:28:12.613Z,93.10
2022-08-05T23:30:43.391Z,93.00
2022-08-05T23:33:21.970Z,93.10
2022-08-05T23:35:56.041Z,93.20
2022-08-05T23:38:24.103Z,93.20
2022-08-05T23:40:52.645Z,93.60
2022-08-05T23:43:25.335Z,93.70
2022-08-05T23:46:04.873Z,93.60
2022-08-05T23:49:00.769Z,93.40
2022-08-05T23:51:53.970Z,93.30
2022-08-05T23:54:36.499Z,93.20
2022-08-05T23:57:06.085Z,93.20
2022-08-05T23:59:37.668Z,93.30
